Time;durP1;ratioP1;P1;durP2;ratioP2;P2;SDS_P1;SDS_P2;PMS_P1;PMS_P2;Temp;Humidity;BMP_temperature;BMP_pressure;BME280_temperature;BME280_humidity;BME280_pressure;Samples;Min_cycle;Max_cycle;Signal;HPM_P1;HPM_P2
2022/08/28 00:00:09;;;;;;;1.43;0.90;;;20.20;90.40;;;;;;6097814;23;20811;-77
2022/08/28 00:02:36;;;;;;;1.50;0.90;;;20.20;90.40;;;;;;6104618;23;20505;-77
2022/08/28 00:05:05;;;;;;;1.40;0.90;;;20.20;90.20;;;;;;6097334;23;20682;-77
2022/08/28 00:07:32;;;;;;;1.47;0.90;;;20.20;90.30;;;;;;6101837;23;20512;-76
2022/08/28 00:10:01;;;;;;;1.40;0.90;;;20.10;90.10;;;;;;6099471;23;20423;-77
2022/08/28 00:12:28;;;;;;;1.47;0.90;;;20.10;90.20;;;;;;6101786;23;20454;-77
2022/08/28 00:14:55;;;;;;;1.43;0.90;;;20.10;90.20;;;;;;6099603;23;20423;-77
2022/08/28 00:17:22;;;;;;;1.50;0.90;;;20.10;90.00;;;;;;6102466;23;20629;-76
2022/08/28 00:19:49;;;;;;;1.47;0.90;;;20.00;90.20;;;;;;6100046;23;20462;-77
2022/08/28 00:22:17;;;;;;;1.47;0.90;;;20.00;90.20;;;;;;6097851;23;20560;-77
2022/08/28 00:24:44;;;;;;;1.50;0.90;;;20.00;90.40;;;;;;6099604;23;20429;-77
2022/08/28 00:30:09;;;;;;;1.50;0.90;;;19.90;90.60;;;;;;6036776;23;20472;-77
2022/08/28 00:32:37;;;;;;;1.50;0.90;;;19.90;90.60;;;;;;6087442;23;20536;-76
2022/08/28 00:35:05;;;;;;;1.43;1.00;;;19.80;90.80;;;;;;6096801;23;20453;-77
2022/08/28 00:37:32;;;;;;;1.43;0.90;;;19.80;90.90;;;;;;6102306;23;20465;-76
2022/08/28 00:39:59;;;;;;;1.47;0.90;;;19.80;90.90;;;;;;6101043;23;20430;-77
2022/08/28 00:42:28;;;;;;;1.47;0.90;;;19.80;91.00;;;;;;6103278;23;20528;-77
2022/08/28 00:44:54;;;;;;;1.50;1.00;;;19.80;91.00;;;;;;6101343;23;20426;-76
2022/08/28 00:47:25;;;;;;;1.50;0.90;;;19.80;91.20;;;;;;6102225;23;20453;-77
2022/08/28 00:49:55;;;;;;;1.47;0.90;;;19.70;91.20;;;;;;6101579;23;20414;-78
2022/08/28 00:52:23;;;;;;;1.50;0.93;;;19.60;91.50;;;;;;6101325;23;20469;-77
2022/08/28 00:54:54;;;;;;;1.50;0.90;;;19.60;91.70;;;;;;6100463;23;20423;-78
2022/08/28 00:57:25;;;;;;;1.50;0.90;;;19.60;91.80;;;;;;6104696;23;20445;-77
2022/08/28 00:59:54;;;;;;;1.43;0.90;;;19.50;91.90;;;;;;6102196;23;20517;-77
2022/08/28 01:02:21;;;;;;;1.40;0.90;;;19.50;91.90;;;;;;6104935;23;20627;-77
2022/08/28 01:04:49;;;;;;;1.43;0.90;;;19.50;92.00;;;;;;6103018;23;20450;-76
2022/08/28 01:07:17;;;;;;;1.50;0.90;;;19.50;91.90;;;;;;6100432;23;20844;-76
2022/08/28 01:09:47;;;;;;;1.50;0.90;;;19.50;92.00;;;;;;6102933;23;20480;-76
2022/08/28 01:12:19;;;;;;;1.43;0.90;;;19.50;91.80;;;;;;6100491;23;20449;-76
2022/08/28 01:14:48;;;;;;;1.47;0.90;;;19.40;91.80;;;;;;6112746;23;20493;-77
2022/08/28 01:17:18;;;;;;;1.50;0.90;;;19.40;92.10;;;;;;6101846;23;20445;-77
2022/08/28 01:19:55;;;;;;;1.40;1.00;;;19.40;92.10;;;;;;6106656;23;20985;-76
2022/08/28 01:22:27;;;;;;;1.50;0.90;;;19.40;92.20;;;;;;6104027;23;20456;-78
2022/08/28 01:24:57;;;;;;;1.50;0.90;;;19.40;92.20;;;;;;6104886;23;20433;-77
2022/08/28 01:27:24;;;;;;;1.50;0.90;;;19.40;92.30;;;;;;6105118;23;20528;-77
2022/08/28 01:29:51;;;;;;;1.50;0.90;;;19.30;92.30;;;;;;6105037;23;20418;-77
2022/08/28 01:32:35;;;;;;;1.50;0.90;;;19.30;92.30;;;;;;6103329;23;20477;-77
2022/08/28 01:35:05;;;;;;;1.47;0.90;;;19.30;92.50;;;;;;6103981;23;20450;-77
2022/08/28 01:37:32;;;;;;;1.50;0.90;;;19.30;92.60;;;;;;6092516;23;20973;-77
2022/08/28 01:40:01;;;;;;;3.80;1.30;;;19.30;92.40;;;;;;6100309;23;20909;-77
2022/08/28 01:42:28;;;;;;;1.50;0.90;;;19.30;92.60;;;;;;6104666;23;20469;-77
2022/08/28 01:44:55;;;;;;;1.47;0.90;;;19.30;92.70;;;;;;6104083;23;20423;-77
2022/08/28 01:47:22;;;;;;;1.47;0.97;;;19.30;92.80;;;;;;6105193;23;20445;-77
2022/08/28 01:49:50;;;;;;;1.43;0.90;;;19.30;92.70;;;;;;6114826;23;20442;-77
2022/08/28 01:52:17;;;;;;;1.50;0.90;;;19.30;92.70;;;;;;6102129;23;20518;-76
2022/08/28 01:54:44;;;;;;;1.50;0.93;;;19.20;92.50;;;;;;6105580;23;20491;-77
2022/08/28 01:57:13;;;;;;;1.50;0.90;;;19.20;92.50;;;;;;6101490;23;20960;-77
2022/08/28 01:59:40;;;;;;;1.47;0.87;;;19.20;92.60;;;;;;6117544;23;20469;-77
2022/08/28 02:02:09;;;;;;;1.47;0.90;;;19.20;92.60;;;;;;6100408;23;20508;-77
2022/08/28 02:04:36;;;;;;;1.47;0.90;;;19.20;92.90;;;;;;6107074;23;21363;-77
2022/08/28 02:07:04;;;;;;;1.40;0.90;;;19.10;92.80;;;;;;6105231;23;20454;-77
2022/08/28 02:09:31;;;;;;;1.50;0.90;;;19.20;92.80;;;;;;6108661;23;20422;-77
2022/08/28 02:11:58;;;;;;;1.50;0.90;;;19.20;92.70;;;;;;6097993;23;20484;-77
2022/08/28 02:14:26;;;;;;;1.43;0.90;;;19.20;92.80;;;;;;6108267;23;20427;-77
2022/08/28 02:16:53;;;;;;;1.43;0.90;;;19.20;92.70;;;;;;6097558;23;20446;-77
2022/08/28 02:19:21;;;;;;;1.50;0.90;;;19.20;92.70;;;;;;6120509;23;20426;-77
2022/08/28 02:21:48;;;;;;;1.50;0.90;;;19.20;92.80;;;;;;6103613;23;20515;-77
2022/08/28 02:24:16;;;;;;;1.50;0.90;;;19.20;92.30;;;;;;6110170;23;20427;-77
2022/08/28 02:26:44;;;;;;;1.43;0.90;;;19.20;92.40;;;;;;6096014;23;20459;-77
2022/08/28 02:29:12;;;;;;;1.47;0.90;;;19.20;92.50;;;;;;6112215;23;20469;-77
2022/08/28 02:31:40;;;;;;;1.50;0.90;;;19.20;92.30;;;;;;6096017;23;20453;-77
2022/08/28 02:34:08;;;;;;;1.40;0.90;;;19.20;92.30;;;;;;6122444;23;20422;-77
2022/08/28 02:36:35;;;;;;;1.47;0.90;;;19.20;92.40;;;;;;6095858;23;20457;-78
2022/08/28 02:39:02;;;;;;;1.43;0.90;;;19.10;92.20;;;;;;6115061;23;20426;-77
2022/08/28 02:41:29;;;;;;;1.50;0.90;;;19.10;92.10;;;;;;6100713;23;20426;-77
2022/08/28 02:43:56;;;;;;;1.47;0.90;;;19.10;92.10;;;;;;6099300;23;20429;-77
2022/08/28 02:46:25;;;;;;;1.50;0.90;;;19.00;92.30;;;;;;6102159;23;20458;-77
2022/08/28 02:48:55;;;;;;;1.50;0.97;;;19.00;92.60;;;;;;6116455;23;20509;-77
2022/08/28 02:51:22;;;;;;;1.50;1.00;;;19.00;92.60;;;;;;6097640;23;20484;-77
2022/08/28 02:53:50;;;;;;;1.43;0.90;;;19.00;92.60;;;;;;6119362;23;20482;-77
2022/08/28 02:56:18;;;;;;;1.50;0.90;;;18.90;92.80;;;;;;6099438;23;20468;-77
2022/08/28 02:58:45;;;;;;;1.47;0.90;;;18.90;92.70;;;;;;6117814;23;20975;-77
2022/08/28 03:01:13;;;;;;;1.40;0.90;;;18.90;92.90;;;;;;6090498;23;20445;-77
2022/08/28 03:03:40;;;;;;;1.50;0.90;;;18.80;92.80;;;;;;6119093;23;20431;-77
2022/08/28 03:06:11;;;;;;;1.50;0.90;;;18.80;92.80;;;;;;6090972;23;20442;-77
2022/08/28 03:08:38;;;;;;;1.50;0.90;;;18.70;93.10;;;;;;6118416;23;20725;-77
2022/08/28 03:11:05;;;;;;;1.50;0.90;;;18.70;93.20;;;;;;6087913;23;20426;-77
2022/08/28 03:13:32;;;;;;;1.50;1.00;;;18.70;93.30;;;;;;6118626;23;20961;-77
2022/08/28 03:16:00;;;;;;;1.50;1.00;;;18.70;93.30;;;;;;6087614;23;20748;-77
2022/08/28 03:18:29;;;;;;;1.47;0.90;;;18.60;93.20;;;;;;6119084;23;20453;-77
2022/08/28 03:20:56;;;;;;;1.47;0.90;;;18.60;93.20;;;;;;6088019;23;20518;-76
2022/08/28 03:23:27;;;;;;;1.50;0.90;;;18.50;93.50;;;;;;6129563;23;20434;-75
2022/08/28 03:25:56;;;;;;;2.23;1.33;;;18.40;93.90;;;;;;6086038;23;20916;-75
2022/08/28 03:28:24;;;;;;;1.50;0.90;;;18.40;94.10;;;;;;6116290;23;20419;-76
2022/08/28 03:30:52;;;;;;;1.50;0.90;;;18.30;94.30;;;;;;6096436;23;20465;-76
2022/08/28 03:33:20;;;;;;;1.50;1.00;;;18.20;94.50;;;;;;6095534;23;20422;-76
2022/08/28 03:35:48;;;;;;;1.50;0.97;;;18.20;94.60;;;;;;6092134;23;20414;-76
2022/08/28 03:38:15;;;;;;;1.50;0.90;;;18.10;94.60;;;;;;6126465;23;20779;-76
2022/08/28 03:40:46;;;;;;;1.50;0.90;;;18.00;94.90;;;;;;6098878;23;20434;-76
2022/08/28 03:43:14;;;;;;;1.50;0.93;;;18.00;95.00;;;;;;6080374;23;20529;-76
2022/08/28 03:45:51;;;;;;;1.50;1.00;;;17.90;95.50;;;;;;6095199;23;20778;-76
2022/08/28 03:48:18;;;;;;;1.50;0.97;;;17.80;95.60;;;;;;6077685;23;20434;-76
2022/08/28 03:50:46;;;;;;;1.50;0.90;;;17.80;95.80;;;;;;6082428;23;20422;-76
2022/08/28 03:53:13;;;;;;;1.50;0.93;;;17.80;95.70;;;;;;6116255;23;20427;-76
2022/08/28 03:55:41;;;;;;;1.50;0.93;;;17.70;95.90;;;;;;6097076;23;20804;-76
2022/08/28 03:58:09;;;;;;;1.50;0.90;;;17.70;96.20;;;;;;6103887;23;20485;-76
2022/08/28 04:00:38;;;;;;;1.50;1.00;;;17.60;96.20;;;;;;6095659;23;21147;-76
2022/08/28 04:03:06;;;;;;;1.50;1.00;;;17.50;96.70;;;;;;6103205;23;20450;-76
2022/08/28 04:05:33;;;;;;;1.50;0.90;;;17.50;96.80;;;;;;6094925;23;20485;-76
2022/08/28 04:08:01;;;;;;;1.50;0.90;;;17.40;97.10;;;;;;6103178;23;20450;-78
2022/08/28 04:10:31;;;;;;;1.50;0.90;;;17.40;97.20;;;;;;6098020;23;20430;-78
2022/08/28 04:12:59;;;;;;;1.50;0.90;;;17.30;97.30;;;;;;6105922;23;20533;-77
2022/08/28 04:15:27;;;;;;;1.50;1.00;;;17.30;97.30;;;;;;6104612;23;20940;-76
2022/08/28 04:17:55;;;;;;;1.50;0.90;;;17.30;97.30;;;;;;6105165;23;21067;-77
2022/08/28 04:20:22;;;;;;;1.50;1.00;;;17.30;97.30;;;;;;6109686;23;20430;-76
2022/08/28 04:22:50;;;;;;;1.50;0.90;;;17.30;97.60;;;;;;6115787;23;20488;-77
2022/08/28 04:25:18;;;;;;;1.50;0.90;;;17.30;97.50;;;;;;6100491;23;20426;-77
2022/08/28 04:27:45;;;;;;;1.50;0.90;;;17.30;97.50;;;;;;6105179;23;20453;-77
2022/08/28 04:30:13;;;;;;;1.50;0.97;;;17.30;97.70;;;;;;6106879;23;20430;-77
2022/08/28 04:32:41;;;;;;;1.47;0.90;;;17.20;97.90;;;;;;6102330;23;20460;-77
2022/08/28 04:35:11;;;;;;;2.53;1.77;;;17.20;97.80;;;;;;6106264;23;20451;-77
2022/08/28 04:37:39;;;;;;;1.50;0.90;;;17.20;97.70;;;;;;6101979;23;20992;-77
2022/08/28 04:40:09;;;;;;;1.50;1.00;;;17.20;97.80;;;;;;6107007;23;20957;-77
2022/08/28 04:42:37;;;;;;;1.50;1.00;;;17.20;97.80;;;;;;6103302;23;20461;-76
2022/08/28 04:45:05;;;;;;;1.50;0.90;;;17.20;98.10;;;;;;6097981;23;20431;-77
2022/08/28 04:47:37;;;;;;;1.50;0.90;;;17.20;98.00;;;;;;6102589;23;21019;-77
2022/08/28 04:50:08;;;;;;;1.50;1.00;;;17.10;97.90;;;;;;6099165;23;20425;-77
2022/08/28 04:52:35;;;;;;;1.50;1.00;;;17.10;98.00;;;;;;6094781;23;20458;-77
2022/08/28 04:55:04;;;;;;;1.50;0.90;;;17.10;98.20;;;;;;6106919;23;20414;-77
2022/08/28 04:57:31;;;;;;;1.50;0.90;;;17.00;98.20;;;;;;6101620;23;20457;-77
2022/08/28 04:59:58;;;;;;;1.50;0.90;;;17.00;98.20;;;;;;6099012;23;20955;-77
2022/08/28 05:02:26;;;;;;;1.50;0.90;;;17.00;98.20;;;;;;6097018;23;20426;-77
2022/08/28 05:04:53;;;;;;;1.50;0.90;;;16.90;98.20;;;;;;6095927;23;20423;-77
2022/08/28 05:07:22;;;;;;;1.50;0.90;;;16.90;98.20;;;;;;6107838;23;20469;-77
2022/08/28 05:09:53;;;;;;;1.50;1.00;;;16.90;98.20;;;;;;6103972;23;20415;-77
2022/08/28 05:12:20;;;;;;;1.50;1.10;;;16.90;98.20;;;;;;6094183;23;20453;-78
2022/08/28 05:14:48;;;;;;;1.50;1.00;;;16.90;98.20;;;;;;6106676;23;20477;-77
2022/08/28 05:17:16;;;;;;;1.50;0.90;;;16.90;98.20;;;;;;6094936;23;20828;-77
2022/08/28 05:19:43;;;;;;;1.50;1.00;;;16.90;98.20;;;;;;6106796;23;20793;-77
2022/08/28 05:22:11;;;;;;;1.50;1.00;;;16.90;98.20;;;;;;6097168;23;20453;-77
2022/08/28 05:24:40;;;;;;;1.50;0.90;;;16.90;98.20;;;;;;6098297;23;20996;-77
2022/08/28 05:27:08;;;;;;;1.50;1.00;;;16.90;98.20;;;;;;6084282;23;20457;-77
2022/08/28 05:29:35;;;;;;;1.50;1.00;;;16.90;98.20;;;;;;6099084;23;20454;-77
2022/08/28 05:32:04;;;;;;;1.50;0.90;;;16.90;98.20;;;;;;6092763;23;20457;-77
2022/08/28 05:34:31;;;;;;;1.50;0.93;;;16.90;98.20;;;;;;6099149;23;20495;-76
2022/08/28 05:36:58;;;;;;;1.47;1.00;;;16.90;98.20;;;;;;6100271;23;20446;-76
2022/08/28 05:39:26;;;;;;;1.50;1.00;;;16.90;98.20;;;;;;6092371;23;20468;-76
2022/08/28 05:41:54;;;;;;;1.77;1.30;;;17.00;98.20;;;;;;6091714;23;20430;-77
2022/08/28 05:44:22;;;;;;;1.47;0.90;;;17.00;98.20;;;;;;6093365;23;20430;-77
2022/08/28 05:46:49;;;;;;;1.50;0.90;;;17.10;98.20;;;;;;6090881;23;20453;-76
2022/08/28 05:49:18;;;;;;;1.47;1.00;;;17.20;98.20;;;;;;6111977;23;20480;-77
2022/08/28 05:51:46;;;;;;;1.50;0.90;;;17.30;98.20;;;;;;6089033;23;20484;-77
2022/08/28 05:54:14;;;;;;;1.50;0.90;;;17.40;98.20;;;;;;6103139;23;20959;-77
2022/08/28 05:56:44;;;;;;;1.50;1.00;;;17.50;97.90;;;;;;6088062;23;20668;-77
2022/08/28 05:59:13;;;;;;;1.50;0.90;;;17.60;97.60;;;;;;6103063;23;20813;-77
2022/08/28 06:01:43;;;;;;;1.50;0.90;;;17.70;97.60;;;;;;6087845;23;20601;-77
2022/08/28 06:04:13;;;;;;;1.50;0.90;;;17.70;97.30;;;;;;6103166;23;20469;-77
2022/08/28 06:06:41;;;;;;;1.50;0.90;;;17.80;97.20;;;;;;6103386;23;20450;-78
2022/08/28 06:09:11;;;;;;;1.50;1.00;;;17.80;97.00;;;;;;6092977;23;20427;-78
2022/08/28 06:11:39;;;;;;;1.50;0.90;;;17.80;97.20;;;;;;6088761;23;20473;-77
2022/08/28 06:14:09;;;;;;;1.47;0.90;;;17.70;97.20;;;;;;6104642;23;20423;-77
2022/08/28 06:16:40;;;;;;;1.50;0.90;;;17.80;97.40;;;;;;6091136;23;20442;-76
2022/08/28 06:19:09;;;;;;;1.50;0.90;;;17.80;97.20;;;;;;6101359;23;20442;-77
2022/08/28 06:21:37;;;;;;;1.50;1.00;;;17.80;96.90;;;;;;6087988;23;20453;-77
2022/08/28 06:24:04;;;;;;;1.50;1.00;;;17.80;97.10;;;;;;6103334;23;20423;-76
2022/08/28 06:26:31;;;;;;;1.50;1.00;;;17.90;96.80;;;;;;6085121;23;20460;-76
2022/08/28 06:29:00;;;;;;;1.50;1.00;;;18.00;96.60;;;;;;6104706;23;20422;-76
2022/08/28 06:31:28;;;;;;;1.50;0.90;;;18.10;96.50;;;;;;6101297;23;20469;-75
2022/08/28 06:33:59;;;;;;;1.50;0.90;;;18.10;96.50;;;;;;6091326;23;20426;-76
2022/08/28 06:36:31;;;;;;;1.50;0.90;;;18.20;96.60;;;;;;6088314;23;20458;-75
2022/08/28 06:38:59;;;;;;;1.50;0.90;;;18.20;96.20;;;;;;6106302;23;20907;-75
2022/08/28 06:41:27;;;;;;;1.50;0.90;;;18.20;96.20;;;;;;6085109;23;20450;-76
2022/08/28 06:43:55;;;;;;;1.50;0.90;;;18.30;95.80;;;;;;6105481;23;20558;-75
2022/08/28 06:46:29;;;;;;;1.50;0.90;;;18.30;95.90;;;;;;6083541;23;20453;-76
2022/08/28 06:48:57;;;;;;;1.50;0.90;;;18.30;95.70;;;;;;6103709;23;20423;-76
2022/08/28 06:51:24;;;;;;;1.50;0.93;;;18.20;95.80;;;;;;6083389;23;20557;-76
2022/08/28 06:53:51;;;;;;;1.47;0.90;;;18.30;96.00;;;;;;6104761;23;20427;-76
2022/08/28 06:56:20;;;;;;;1.47;0.90;;;18.30;95.80;;;;;;6082717;23;20806;-76
2022/08/28 06:58:49;;;;;;;1.43;0.90;;;18.40;95.70;;;;;;6107072;23;20545;-77
2022/08/28 07:01:21;;;;;;;1.50;0.90;;;18.50;95.80;;;;;;6083241;23;20692;-76
2022/08/28 07:03:50;;;;;;;1.50;0.90;;;18.50;95.30;;;;;;6106404;23;20414;-76
2022/08/28 07:06:19;;;;;;;1.50;0.90;;;18.60;95.30;;;;;;6081077;23;20504;-75
2022/08/28 07:08:46;;;;;;;1.50;0.90;;;18.70;94.90;;;;;;6107494;23;21179;-76
2022/08/28 07:11:20;;;;;;;1.50;0.90;;;18.70;94.80;;;;;;6082201;23;20457;-76
2022/08/28 07:13:48;;;;;;;1.50;0.90;;;18.80;94.30;;;;;;6105606;23;20411;-75
2022/08/28 07:16:18;;;;;;;1.50;0.90;;;18.80;94.30;;;;;;6090871;23;20458;-76
2022/08/28 07:18:46;;;;;;;1.47;0.90;;;19.00;94.10;;;;;;6121063;23;20878;-77
2022/08/28 07:21:16;;;;;;;1.40;0.90;;;19.00;93.70;;;;;;6085357;23;20846;-77
2022/08/28 07:23:45;;;;;;;1.50;0.90;;;19.00;93.50;;;;;;6111167;23;20917;-75
2022/08/28 07:26:15;;;;;;;1.50;0.90;;;19.00;93.20;;;;;;6090315;23;20460;-76
2022/08/28 07:28:42;;;;;;;1.50;0.90;;;19.00;93.80;;;;;;6109662;23;20493;-75
2022/08/28 07:31:13;;;;;;;1.50;0.90;;;19.10;94.00;;;;;;6081395;23;20445;-76
2022/08/28 07:33:41;;;;;;;1.50;0.90;;;19.20;93.70;;;;;;6104990;23;20423;-75
2022/08/28 07:36:15;;;;;;;1.50;0.90;;;19.40;93.30;;;;;;6083350;23;20449;-77
2022/08/28 07:38:42;;;;;;;1.50;1.00;;;19.50;93.20;;;;;;6116401;23;20454;-75
2022/08/28 07:41:15;;;;;;;1.50;0.80;;;19.50;93.00;;;;;;6092295;23;20438;-76
2022/08/28 07:46:38;;;;;;;1.47;0.90;;;19.60;92.40;;;;;;6093059;23;20863;-77
2022/08/28 07:49:05;;;;;;;1.50;0.90;;;19.70;92.50;;;;;;6093732;23;20454;-76
2022/08/28 07:51:33;;;;;;;1.50;0.90;;;19.80;91.90;;;;;;6092429;23;20749;-75
2022/08/28 07:54:02;;;;;;;1.50;0.90;;;19.80;92.00;;;;;;6107895;23;20734;-76
2022/08/28 07:56:32;;;;;;;1.50;0.90;;;19.80;92.10;;;;;;6094326;23;20689;-77
2022/08/28 07:59:02;;;;;;;1.47;0.90;;;19.90;91.70;;;;;;6119752;23;20443;-77
2022/08/28 08:01:30;;;;;;;1.50;0.90;;;20.00;91.70;;;;;;6092454;23;20466;-76
2022/08/28 08:03:58;;;;;;;1.50;0.87;;;20.00;90.60;;;;;;6091110;23;20769;-76
2022/08/28 08:06:30;;;;;;;1.50;0.90;;;19.90;90.80;;;;;;6091828;23;20481;-76
2022/08/28 08:08:58;;;;;;;1.40;0.90;;;19.80;91.60;;;;;;6107594;23;20411;-76
2022/08/28 08:11:25;;;;;;;1.50;0.87;;;19.80;91.10;;;;;;6102736;23;20418;-76
2022/08/28 08:13:55;;;;;;;1.50;0.90;;;19.70;91.70;;;;;;6091746;23;20476;-76
2022/08/28 08:16:25;;;;;;;1.50;0.90;;;19.70;91.20;;;;;;6100180;23;20797;-76
2022/08/28 08:18:53;;;;;;;1.50;0.90;;;19.70;91.50;;;;;;6091783;23;20450;-76
2022/08/28 08:21:22;;;;;;;1.50;0.90;;;19.80;92.20;;;;;;6085322;23;20473;-76
2022/08/28 08:23:51;;;;;;;1.60;1.20;;;20.20;91.00;;;;;;6109185;23;20438;-76
2022/08/28 08:26:21;;;;;;;1.50;0.90;;;20.60;90.40;;;;;;6095334;23;20472;-76
2022/08/28 08:28:50;;;;;;;1.50;0.90;;;21.00;88.40;;;;;;6106660;23;20580;-76
2022/08/28 08:31:25;;;;;;;1.50;0.90;;;21.20;87.40;;;;;;6082170;23;20446;-76
2022/08/28 08:33:54;;;;;;;1.50;0.90;;;21.30;85.70;;;;;;6115884;23;20430;-76
2022/08/28 08:36:26;;;;;;;1.50;0.90;;;21.30;85.90;;;;;;6092593;23;20513;-77
2022/08/28 08:38:55;;;;;;;1.50;0.87;;;21.50;85.60;;;;;;6094129;23;20447;-76
2022/08/28 08:41:29;;;;;;;1.50;0.90;;;21.80;86.10;;;;;;6083668;23;20461;-76
2022/08/28 08:43:59;;;;;;;1.50;0.90;;;22.10;85.20;;;;;;6114443;23;20770;-76
2022/08/28 08:46:34;;;;;;;1.50;0.90;;;22.40;84.10;;;;;;6083954;23;20654;-76
2022/08/28 08:49:06;;;;;;;1.50;0.90;;;22.60;82.10;;;;;;6104629;23;20893;-75
2022/08/28 08:51:43;;;;;;;1.50;0.90;;;22.70;82.30;;;;;;6090003;23;20505;-76
2022/08/28 08:54:15;;;;;;;1.50;0.80;;;22.80;81.50;;;;;;6099715;23;20433;-75
2022/08/28 08:56:45;;;;;;;1.50;0.90;;;22.80;81.60;;;;;;6086764;23;20465;-78
2022/08/28 08:59:17;;;;;;;1.50;0.90;;;22.90;81.20;;;;;;6113104;23;20605;-78
2022/08/28 09:01:55;;;;;;;1.50;0.90;;;23.00;80.00;;;;;;6090206;23;20449;-77
2022/08/28 09:04:38;;;;;;;1.47;0.90;;;23.10;80.60;;;;;;6100754;23;20458;-76
2022/08/28 09:07:15;;;;;;;1.50;0.90;;;23.30;80.90;;;;;;6091304;23;20960;-78
2022/08/28 09:09:53;;;;;;;1.47;0.90;;;23.40;78.30;;;;;;6099402;23;20889;-78
2022/08/28 09:12:23;;;;;;;1.50;0.90;;;23.40;80.00;;;;;;6098783;23;20460;-79
2022/08/28 09:15:04;;;;;;;1.50;0.90;;;23.60;77.90;;;;;;6106357;23;20430;-79
2022/08/28 09:17:54;;;;;;;1.50;0.90;;;23.70;77.90;;;;;;6102370;23;20517;-77
2022/08/28 09:20:24;;;;;;;1.47;0.90;;;23.90;76.20;;;;;;6102064;23;20446;-77
2022/08/28 09:26:13;;;;;;;1.50;0.80;;;24.20;76.50;;;;;;6001975;23;20492;-78
2022/08/28 09:28:43;;;;;;;1.70;1.50;;;24.40;76.00;;;;;;6005832;23;20436;-77
2022/08/28 09:31:18;;;;;;;1.47;0.80;;;24.50;74.10;;;;;;6063979;23;20535;-79
2022/08/28 09:33:50;;;;;;;1.43;0.80;;;24.70;74.70;;;;;;6114017;23;20402;-78
2022/08/28 09:36:42;;;;;;;1.50;0.90;;;24.60;73.90;;;;;;6094975;23;20533;-79
2022/08/28 09:39:16;;;;;;;1.47;0.90;;;24.50;73.00;;;;;;6110026;23;20431;-77
2022/08/28 09:45:05;;;;;;;1.47;0.83;;;24.40;73.00;;;;;;6109074;23;20393;-75
2022/08/28 09:47:39;;;;;;;1.47;0.80;;;24.50;74.10;;;;;;6104901;23;20453;-79
2022/08/28 09:50:23;;;;;;;1.50;0.90;;;24.60;73.40;;;;;;6110309;23;20482;-77
2022/08/28 09:52:53;;;;;;;1.47;0.90;;;24.80;73.20;;;;;;6108063;23;21025;-79
2022/08/28 09:55:54;;;;;;;1.50;0.90;;;25.00;73.40;;;;;;6098349;23;20429;-80
2022/08/28 09:58:23;;;;;;;1.47;0.80;;;25.10;73.10;;;;;;6104337;23;20422;-78
2022/08/28 10:01:08;;;;;;;1.47;0.80;;;25.20;72.30;;;;;;6085278;23;20477;-77
2022/08/28 10:04:06;;;;;;;2.00;1.80;;;25.30;72.70;;;;;;6112736;23;21012;-77
2022/08/28 10:06:37;;;;;;;1.43;0.80;;;25.60;72.10;;;;;;6085207;23;20457;-77
2022/08/28 10:09:24;;;;;;;1.47;0.83;;;25.90;72.40;;;;;;6120154;23;20426;-79
2022/08/28 10:12:00;;;;;;;1.40;0.83;;;26.10;70.80;;;;;;6101890;23;20453;-79
2022/08/28 10:14:43;;;;;;;1.47;0.90;;;26.20;71.40;;;;;;6117721;23;20992;-78
2022/08/28 10:17:36;;;;;;;1.47;0.80;;;26.20;70.40;;;;;;6100340;23;20457;-75
2022/08/28 10:20:14;;;;;;;1.50;0.87;;;26.10;70.00;;;;;;6096639;23;20441;-76
2022/08/28 10:22:52;;;;;;;1.50;0.80;;;26.10;68.90;;;;;;6099285;23;20456;-76
2022/08/28 10:25:29;;;;;;;1.40;0.83;;;26.20;70.50;;;;;;6101148;23;20430;-76
2022/08/28 10:28:20;;;;;;;1.47;0.80;;;26.30;70.70;;;;;;6101433;23;20545;-76
2022/08/28 10:31:09;;;;;;;1.47;0.80;;;26.30;69.10;;;;;;6069373;23;20464;-77
2022/08/28 10:33:51;;;;;;;1.50;0.80;;;26.30;69.80;;;;;;6109866;23;20489;-76
2022/08/28 10:36:23;;;;;;;1.47;0.80;;;26.20;70.20;;;;;;6085255;23;20477;-75
2022/08/28 10:39:03;;;;;;;1.50;0.80;;;26.50;70.20;;;;;;6118077;23;20551;-76
2022/08/28 10:41:38;;;;;;;1.47;0.90;;;26.70;69.40;;;;;;6090982;23;20481;-76
2022/08/28 10:44:08;;;;;;;1.50;0.80;;;26.90;69.40;;;;;;6101007;23;20421;-75
2022/08/28 10:46:41;;;;;;;1.40;0.80;;;26.90;67.90;;;;;;6092669;23;20460;-76
2022/08/28 10:49:17;;;;;;;1.50;0.80;;;27.00;68.60;;;;;;6111972;23;20717;-76
2022/08/28 10:51:47;;;;;;;1.50;0.80;;;27.10;67.20;;;;;;6088343;23;20911;-76
2022/08/28 10:54:28;;;;;;;1.43;0.80;;;27.20;66.50;;;;;;6101192;23;20426;-76
2022/08/28 10:57:03;;;;;;;1.40;0.80;;;27.30;66.90;;;;;;6089749;23;21039;-75
2022/08/28 10:59:33;;;;;;;1.43;0.80;;;27.30;66.50;;;;;;6109178;23;20442;-75
2022/08/28 11:02:02;;;;;;;1.40;0.80;;;27.40;65.60;;;;;;6089774;23;20448;-76
2022/08/28 11:04:30;;;;;;;1.50;0.80;;;27.40;64.90;;;;;;6108613;23;20553;-76
2022/08/28 11:07:02;;;;;;;1.40;1.00;;;27.30;65.30;;;;;;6093203;23;20464;-75
2022/08/28 11:09:49;;;;;;;1.50;1.00;;;27.20;65.90;;;;;;6110494;23;20422;-77
2022/08/28 11:12:38;;;;;;;1.43;0.80;;;27.10;65.00;;;;;;6096411;23;20449;-76
2022/08/28 11:15:57;;;;;;;1.43;0.80;;;27.30;66.50;;;;;;6091696;23;20413;-76
2022/08/28 11:18:50;;;;;;;1.47;0.90;;;27.70;66.60;;;;;;6016588;23;20499;-76
2022/08/28 11:21:26;;;;;;;1.40;0.80;;;27.90;65.40;;;;;;6019657;23;20451;-77
2022/08/28 11:24:01;;;;;;;1.47;0.80;;;28.00;63.70;;;;;;6076643;23;20425;-77
2022/08/28 11:26:52;;;;;;;1.43;0.80;;;28.00;65.20;;;;;;6092723;23;21038;-76
2022/08/28 11:29:54;;;;;;;1.43;0.80;;;27.90;64.80;;;;;;6102190;23;20438;-75
2022/08/28 11:32:40;;;;;;;1.47;0.80;;;27.80;64.40;;;;;;6090460;23;20479;-77
2022/08/28 11:35:40;;;;;;;1.50;0.80;;;27.80;63.70;;;;;;6098984;23;20476;-75
2022/08/28 11:38:09;;;;;;;1.43;0.80;;;27.50;63.70;;;;;;6101239;23;20460;-75
2022/08/28 11:41:10;;;;;;;1.50;0.80;;;27.60;65.10;;;;;;6088310;23;20796;-75
2022/08/28 11:43:42;;;;;;;1.50;1.00;;;27.60;63.80;;;;;;6070808;23;20441;-75
2022/08/28 11:46:25;;;;;;;1.40;0.80;;;27.70;64.30;;;;;;6077760;23;20453;-76
2022/08/28 11:48:54;;;;;;;1.47;0.80;;;27.70;63.40;;;;;;6103304;23;20409;-76
2022/08/28 11:51:52;;;;;;;1.40;0.80;;;27.70;63.70;;;;;;6088450;23;20452;-76
2022/08/28 11:54:40;;;;;;;1.40;0.87;;;27.50;62.50;;;;;;6096599;23;20443;-75
2022/08/28 11:57:14;;;;;;;1.40;0.80;;;27.50;64.20;;;;;;6089595;23;20733;-76
2022/08/28 12:00:02;;;;;;;1.43;0.80;;;27.70;64.00;;;;;;6095173;23;20961;-75
2022/08/28 12:02:50;;;;;;;1.43;0.80;;;27.80;64.00;;;;;;6098124;23;20449;-76
2022/08/28 12:05:53;;;;;;;1.40;0.80;;;27.90;62.90;;;;;;6098173;23;20638;-75
2022/08/28 12:09:09;;;;;;;1.47;0.80;;;27.80;63.00;;;;;;5963067;23;21201;-76
2022/08/28 12:11:58;;;;;;;1.50;1.00;;;27.70;63.40;;;;;;5984545;23;20452;-75
2022/08/28 12:15:06;;;;;;;1.50;0.80;;;27.90;64.20;;;;;;6089971;23;20434;-75
2022/08/28 12:17:47;;;;;;;1.43;0.80;;;28.10;62.70;;;;;;6096765;23;20459;-75
2022/08/28 12:20:28;;;;;;;1.40;0.90;;;28.30;63.70;;;;;;6089201;23;20458;-75
2022/08/28 12:22:59;;;;;;;1.43;0.80;;;28.40;62.50;;;;;;6096617;23;20463;-75
2022/08/28 12:25:32;;;;;;;1.47;0.80;;;28.50;63.20;;;;;;6099025;23;20425;-76
2022/08/28 12:28:05;;;;;;;1.43;0.80;;;28.30;62.10;;;;;;6097710;23;20453;-75
2022/08/28 12:30:40;;;;;;;1.50;0.80;;;28.40;62.80;;;;;;6097321;23;20489;-75
2022/08/28 12:33:17;;;;;;;1.50;0.80;;;28.60;62.30;;;;;;6095332;23;20508;-75
2022/08/28 12:35:50;;;;;;;1.40;0.80;;;28.60;61.50;;;;;;6088543;23;20429;-76
2022/08/28 12:38:21;;;;;;;1.40;0.80;;;28.30;61.40;;;;;;6075466;23;20823;-77
2022/08/28 12:40:52;;;;;;;1.47;0.80;;;28.30;62.00;;;;;;6073597;23;20450;-76
2022/08/28 12:43:28;;;;;;;1.43;0.80;;;28.30;61.60;;;;;;6108874;23;20502;-77
2022/08/28 12:45:58;;;;;;;1.43;0.80;;;28.40;62.80;;;;;;6075159;23;20445;-74
2022/08/28 12:48:31;;;;;;;1.40;0.80;;;28.50;61.60;;;;;;6108026;23;20406;-75
2022/08/28 12:51:04;;;;;;;1.43;0.80;;;28.30;60.10;;;;;;6076074;23;20415;-75
2022/08/28 12:53:40;;;;;;;1.43;0.80;;;28.30;61.50;;;;;;6117666;23;20428;-75
2022/08/28 12:56:10;;;;;;;1.47;0.80;;;28.50;60.10;;;;;;6078057;23;20448;-75
2022/08/28 12:58:40;;;;;;;1.47;0.80;;;28.70;61.80;;;;;;6115274;23;20905;-74
2022/08/28 13:01:11;;;;;;;1.43;0.80;;;28.50;60.90;;;;;;6078000;23;20827;-74
2022/08/28 13:03:48;;;;;;;1.43;0.80;;;28.50;61.00;;;;;;6105169;23;20485;-75
2022/08/28 13:06:23;;;;;;;1.47;0.80;;;28.30;60.00;;;;;;6078918;23;20544;-74
2022/08/28 13:08:53;;;;;;;1.50;0.90;;;28.10;62.10;;;;;;6101236;23;20410;-76
2022/08/28 13:11:20;;;;;;;1.40;0.80;;;28.20;60.60;;;;;;6071762;23;20540;-75
2022/08/28 13:13:51;;;;;;;1.40;0.80;;;28.30;62.10;;;;;;6102339;23;20513;-75
2022/08/28 13:16:38;;;;;;;1.43;0.83;;;28.30;60.70;;;;;;6080365;23;20485;-74
2022/08/28 13:19:26;;;;;;;1.47;0.80;;;28.40;61.00;;;;;;6111893;23;20456;-74
2022/08/28 13:21:59;;;;;;;1.40;0.80;;;28.50;61.20;;;;;;6091370;23;20555;-75
2022/08/28 13:24:41;;;;;;;1.43;0.80;;;28.50;60.80;;;;;;6096347;23;20449;-75